Time;durP1;ratioP1;P1;durP2;ratioP2;P2;SDS_P1;SDS_P2;PMS_P1;PMS_P2;Temp;Humidity;BMP_temperature;BMP_pressure;BME280_temperature;BME280_humidity;BME280_pressure;Samples;Min_cycle;Max_cycle;Signal;HPM_P1;HPM_P2
2022/11/01 00:03:03;;;;;;;15.95;6.70;;;;;;;11.98;100.00;100715.41;10360142;28;20064;-77
2022/11/01 00:08:04;;;;;;;17.00;7.43;;;;;;;12.33;100.00;100705.44;10358906;28;20048;-78
2022/11/01 00:13:04;;;;;;;18.13;9.60;;;;;;;12.94;100.00;100684.88;10357541;28;20133;-78
2022/11/01 00:18:05;;;;;;;12.02;6.05;;;;;;;13.45;100.00;100691.00;10358138;28;20033;-79
2022/11/01 00:23:05;;;;;;;11.43;6.07;;;;;;;13.80;99.43;100678.97;10341714;28;20042;-79
2022/11/01 00:28:06;;;;;;;15.23;5.68;;;;;;;14.23;95.74;100676.75;10357484;28;20056;-80
2022/11/01 00:33:06;;;;;;;16.77;5.88;;;;;;;14.66;92.57;100669.19;10359868;28;20390;-80
2022/11/01 00:38:07;;;;;;;7.32;3.78;;;;;;;14.85;92.59;100676.75;10341618;28;20128;-81
2022/11/01 00:43:07;;;;;;;12.90;4.30;;;;;;;14.89;92.34;100668.97;10358082;28;20064;-81
2022/11/01 00:48:08;;;;;;;9.88;4.72;;;;;;;14.73;94.48;100666.75;10341587;28;20045;-79
2022/11/01 00:53:09;;;;;;;19.27;6.68;;;;;;;14.62;96.67;100676.97;10356877;28;20073;-79
2022/11/01 00:58:10;;;;;;;13.85;5.97;;;;;;;14.59;97.20;100682.16;10357788;28;20037;-82
2022/11/01 01:03:11;;;;;;;7.90;4.63;;;;;;;14.54;98.19;100674.13;10358656;28;20080;-79
2022/11/01 01:08:11;;;;;;;15.32;4.88;;;;;;;14.47;98.82;100673.06;10358421;28;20038;-79
2022/11/01 01:13:12;;;;;;;12.90;4.95;;;;;;;14.62;97.87;100676.97;10360000;28;20050;-84
2022/11/01 01:18:12;;;;;;;8.00;4.93;;;;;;;14.64;97.56;100672.66;10340155;28;20092;-77
2022/11/01 01:23:13;;;;;;;8.77;4.28;;;;;;;14.71;97.79;100681.63;10362640;28;20046;-77
2022/11/01 01:28:13;;;;;;;12.05;4.55;;;;;;;14.80;96.92;100671.34;10363442;28;20046;-78
2022/11/01 01:33:13;;;;;;;9.43;4.18;;;;;;;14.91;95.85;100669.88;10364590;28;20433;-82
2022/11/01 01:38:14;;;;;;;7.85;4.05;;;;;;;14.92;95.35;100669.03;10364485;28;20042;-79
2022/11/01 01:43:14;;;;;;;12.45;4.97;;;;;;;15.06;94.39;100666.78;10364162;28;20393;-80
2022/11/01 01:48:19;;;;;;;9.60;3.75;;;;;;;15.04;94.37;100652.69;10363364;28;20115;-77
2022/11/01 01:53:24;;;;;;;8.65;4.22;;;;;;;15.07;94.26;100642.22;10363132;28;20037;-77
2022/11/01 01:58:37;;;;;;;13.27;4.72;;;;;;;15.12;93.49;100643.22;10362635;28;20042;-81
2022/11/01 02:03:37;;;;;;;12.85;4.70;;;;;;;15.06;93.65;100647.44;10363449;28;20044;-81
2022/11/01 02:08:39;;;;;;;11.70;6.07;;;;;;;14.97;94.48;100653.38;10347329;28;20077;-78
2022/11/01 02:13:40;;;;;;;11.45;5.47;;;;;;;14.91;94.78;100659.34;10346720;28;20045;-77
2022/11/01 02:19:26;;;;;;;13.93;4.95;;;;;;;15.08;93.94;100656.25;10362030;28;20038;-78
2022/11/01 02:24:42;;;;;;;7.78;4.40;;;;;;;15.20;93.01;100658.34;10341647;28;20129;-78
2022/11/01 02:29:55;;;;;;;11.77;5.63;;;;;;;15.29;92.07;100649.75;10364214;28;20048;-77
2022/11/01 02:35:06;;;;;;;12.60;4.25;;;;;;;15.31;91.83;100656.88;10362877;28;20473;-78
2022/11/01 02:40:10;;;;;;;10.30;5.57;;;;;;;15.34;91.58;100662.22;10361257;28;20479;-79
2022/11/01 02:45:26;;;;;;;8.93;3.28;;;;;;;15.22;91.92;100659.28;10346403;28;20041;-79
2022/11/01 02:50:29;;;;;;;11.07;4.18;;;;;;;15.28;92.02;100664.69;10347764;28;20125;-79
2022/11/01 02:55:30;;;;;;;9.10;5.15;;;;;;;15.18;92.73;100662.69;10344493;28;20061;-78
2022/11/01 03:00:32;;;;;;;12.07;4.70;;;;;;;15.24;92.50;100660.19;10344525;28;20117;-77
2022/11/01 03:05:43;;;;;;;12.52;4.45;;;;;;;15.37;91.21;100664.03;10345699;28;20050;-78
2022/11/01 03:11:04;;;;;;;6.28;3.17;;;;;;;15.32;91.48;100668.28;10361651;28;20099;-76
2022/11/01 03:16:26;;;;;;;9.15;4.38;;;;;;;15.29;91.76;100662.94;10361279;28;20045;-77
2022/11/01 03:21:28;;;;;;;9.75;3.97;;;;;;;15.30;91.23;100668.25;10358148;28;20128;-77
2022/11/01 03:26:30;;;;;;;13.40;4.15;;;;;;;15.22;91.63;100669.81;10360437;28;20042;-76
2022/11/01 03:31:32;;;;;;;8.90;3.43;;;;;;;15.21;91.03;100670.66;10358826;28;20043;-77
2022/11/01 03:36:35;;;;;;;6.18;3.45;;;;;;;15.17;91.39;100687.25;10358704;28;20042;-77
2022/11/01 03:41:38;;;;;;;5.80;3.38;;;;;;;15.11;91.12;100699.41;10359911;28;20049;-77
2022/11/01 03:46:39;;;;;;;8.82;3.75;;;;;;;15.12;91.29;100692.41;10357563;28;20550;-77
2022/11/01 03:51:40;;;;;;;10.85;3.65;;;;;;;15.18;90.43;100713.63;10360574;28;20030;-78
2022/11/01 03:56:40;;;;;;;7.70;3.60;;;;;;;15.26;90.02;100714.72;10353356;28;20061;-77
2022/11/01 04:01:41;;;;;;;11.38;3.60;;;;;;;15.23;90.33;100733.09;10359004;28;20040;-77
2022/11/01 04:06:41;;;;;;;10.93;4.18;;;;;;;15.23;90.78;100738.38;10358899;28;20124;-77
2022/11/01 04:11:42;;;;;;;7.85;3.85;;;;;;;15.17;90.86;100747.88;10359757;28;20038;-78
2022/11/01 04:22:03;;;;;;;6.07;3.20;;;;;;;15.22;88.63;100767.34;10360117;28;20471;-78
2022/11/01 04:27:03;;;;;;;6.90;2.80;;;;;;;15.22;87.02;100784.06;10357683;28;20128;-77
2022/11/01 04:32:04;;;;;;;4.40;2.38;;;;;;;15.19;84.96;100794.50;10358390;28;20397;-77
2022/11/01 04:37:04;;;;;;;9.00;2.45;;;;;;;15.05;83.23;100812.59;10357176;28;20038;-77
2022/11/01 04:42:05;;;;;;;9.38;2.63;;;;;;;14.99;79.28;100812.41;10357284;28;20038;-79
2022/11/01 04:47:05;;;;;;;4.78;1.33;;;;;;;14.80;78.40;100839.94;10355940;28;20502;-78
2022/11/01 04:52:06;;;;;;;14.15;1.95;;;;;;;14.54;79.00;100850.56;10359325;28;20089;-78
2022/11/01 04:57:07;;;;;;;6.47;2.67;;;;;;;14.32;79.96;100870.06;10359620;28;20175;-77
2022/11/01 05:02:07;;;;;;;5.60;1.77;;;;;;;14.09;80.83;100891.25;10366592;28;20486;-79
2022/11/01 05:07:08;;;;;;;3.97;1.67;;;;;;;13.98;80.25;100896.13;10364846;28;20041;-77
2022/11/01 05:12:08;;;;;;;3.33;1.38;;;;;;;13.78;79.56;100924.41;10367015;28;20119;-77
2022/11/01 05:17:09;;;;;;;2.92;1.00;;;;;;;13.73;78.70;100929.47;10365268;28;20037;-76
2022/11/01 05:22:09;;;;;;;5.53;1.38;;;;;;;13.47;79.43;100932.06;10365665;28;20058;-77
2022/11/01 05:27:10;;;;;;;6.30;1.55;;;;;;;13.19;80.39;100970.41;10365128;28;20057;-77
2022/11/01 05:32:11;;;;;;;7.13;1.95;;;;;;;12.99;79.80;100974.91;10346463;28;20066;-75
2022/11/01 05:37:11;;;;;;;2.25;1.10;;;;;;;13.00;78.76;100981.03;10359574;28;20122;-78
2022/11/01 05:42:12;;;;;;;5.45;1.27;;;;;;;12.73;80.01;101003.66;10363115;28;20073;-76
2022/11/01 05:47:12;;;;;;;6.07;1.83;;;;;;;12.58;80.09;101009.13;10361366;28;20038;-75
2022/11/01 05:52:13;;;;;;;5.88;1.70;;;;;;;12.48;78.07;101018.38;10364249;28;20049;-77
2022/11/01 05:57:13;;;;;;;2.60;1.08;;;;;;;12.54;76.67;101035.22;10363230;28;20135;-77
2022/11/01 06:02:14;;;;;;;3.60;1.02;;;;;;;12.33;77.75;101036.97;10361530;28;20046;-77
2022/11/01 06:07:14;;;;;;;3.10;0.80;;;;;;;12.16;78.87;101037.97;10361211;28;20049;-76
2022/11/01 06:12:15;;;;;;;4.13;1.05;;;;;;;11.87;80.72;101035.84;10342893;28;20042;-75
2022/11/01 06:17:15;;;;;;;4.68;1.30;;;;;;;11.86;80.39;101059.34;10361203;28;20042;-75
2022/11/01 06:22:16;;;;;;;3.45;1.38;;;;;;;11.79;80.13;101060.81;10359174;28;20040;-75
2022/11/01 06:27:17;;;;;;;6.65;2.20;;;;;;;11.71;80.00;101070.94;10363177;28;20136;-75
2022/11/01 06:32:17;;;;;;;6.05;1.00;;;;;;;11.77;79.12;101088.69;10362346;28;20088;-76
2022/11/01 06:37:18;;;;;;;5.85;0.90;;;;;;;11.52;80.51;101102.34;10361668;28;20477;-76
2022/11/01 06:42:18;;;;;;;6.45;1.00;;;;;;;11.50;80.13;101096.13;10360099;28;20054;-76
2022/11/01 06:47:19;;;;;;;4.20;0.95;;;;;;;11.49;79.02;101107.44;10359466;28;20384;-78
2022/11/01 06:52:20;;;;;;;5.40;1.25;;;;;;;11.59;78.17;101109.69;10359983;28;20486;-77
2022/11/01 06:57:20;;;;;;;6.65;1.70;;;;;;;11.42;79.15;101112.41;10359884;28;20040;-78
2022/11/01 07:02:21;;;;;;;6.28;2.42;;;;;;;11.40;79.16;101124.53;10361756;28;20137;-77
2022/11/01 07:07:21;;;;;;;8.30;3.17;;;;;;;11.38;78.72;101138.38;10362063;28;20124;-78
2022/11/01 07:12:22;;;;;;;9.38;4.60;;;;;;;11.24;79.64;101150.81;10359154;28;20073;-79
2022/11/01 07:17:22;;;;;;;4.80;1.40;;;;;;;11.35;77.95;101160.09;10357592;28;20577;-78
2022/11/01 07:22:23;;;;;;;5.10;2.75;;;;;;;11.48;76.27;101172.09;10357268;28;20030;-76
2022/11/01 07:27:23;;;;;;;6.20;1.70;;;;;;;11.55;74.25;101181.13;10360360;28;20520;-77
2022/11/01 07:32:24;;;;;;;6.07;1.55;;;;;;;11.46;74.47;101179.84;10361149;28;20136;-78
2022/11/01 07:37:28;;;;;;;31.30;2.85;;;;;;;11.47;73.75;101201.75;10360099;28;20044;-77
2022/11/01 07:42:29;;;;;;;10.75;3.05;;;;;;;11.57;72.46;101200.47;10360511;28;20030;-78
2022/11/01 07:47:29;;;;;;;7.18;1.60;;;;;;;11.52;72.96;101208.09;10358673;28;20041;-77
2022/11/01 07:52:30;;;;;;;5.30;1.63;;;;;;;11.46;72.16;101211.31;10358739;28;20489;-78
2022/11/01 07:57:31;;;;;;;8.57;2.28;;;;;;;11.40;73.13;101212.75;10359216;28;20061;-78
2022/11/01 08:02:31;;;;;;;13.60;2.88;;;;;;;11.42;72.73;101216.34;10358584;28;20132;-79
2022/11/01 08:07:37;;;;;;;6.55;2.33;;;;;;;11.52;72.47;101231.69;10361814;28;20375;-77
2022/11/01 08:12:37;;;;;;;6.60;1.75;;;;;;;11.72;70.62;101235.28;10358289;28;20034;-76
2022/11/01 08:17:38;;;;;;;9.55;2.30;;;;;;;11.96;69.70;101244.28;10359254;28;20440;-76
2022/11/01 08:22:39;;;;;;;11.98;1.90;;;;;;;12.07;70.24;101248.34;10356098;28;20042;-76
2022/11/01 08:27:39;;;;;;;7.88;2.95;;;;;;;12.17;69.75;101262.78;10358725;28;20046;-77
2022/11/01 08:32:40;;;;;;;7.43;2.72;;;;;;;12.43;67.92;101276.25;10357204;28;20058;-76
2022/11/01 08:37:51;;;;;;;13.93;3.08;;;;;;;12.67;67.70;101270.31;10359440;28;20462;-78
2022/11/01 08:42:51;;;;;;;6.65;2.55;;;;;;;12.88;66.66;101276.53;10342756;28;20406;-78
2022/11/01 08:47:58;;;;;;;16.83;2.53;;;;;;;12.96;68.18;101282.16;10340127;28;20066;-77
2022/11/01 08:53:06;;;;;;;20.40;2.25;;;;;;;13.17;65.46;101286.56;10357821;28;20111;-78
2022/11/01 08:58:06;;;;;;;6.55;1.80;;;;;;;13.37;65.50;101276.91;10326255;28;20061;-78
2022/11/01 09:03:07;;;;;;;7.95;1.73;;;;;;;13.44;65.15;101286.88;10357629;28;20038;-77
2022/11/01 09:08:08;;;;;;;22.10;3.40;;;;;;;13.55;63.79;101292.59;10356732;28;20133;-78
2022/11/01 09:13:08;;;;;;;10.70;2.42;;;;;;;13.67;64.35;101286.94;10339796;28;20120;-81
2022/11/01 09:18:09;;;;;;;8.63;1.83;;;;;;;13.76;63.43;101302.22;10357346;28;20044;-83
2022/11/01 09:23:09;;;;;;;10.60;2.22;;;;;;;13.87;63.92;101300.94;10356696;28;20064;-83
2022/11/01 09:28:10;;;;;;;9.10;3.05;;;;;;;14.03;63.70;101309.47;10373712;28;20038;-80
2022/11/01 09:33:10;;;;;;;9.40;3.88;;;;;;;14.31;62.62;101303.53;10353881;28;20121;-80
2022/11/01 09:38:14;;;;;;;20.88;9.27;;;;;;;14.85;62.28;101324.94;10356637;28;20038;-82
2022/11/01 09:43:19;;;;;;;14.80;4.50;;;;;;;16.30;55.97;101321.09;10357144;28;20049;-79
2022/11/01 09:48:19;;;;;;;14.80;3.25;;;;;;;18.28;50.82;101323.00;10345361;28;20049;-79
2022/11/01 09:53:21;;;;;;;6.50;2.35;;;;;;;18.99;48.65;101331.59;10362205;28;20066;-81
2022/11/01 09:58:49;;;;;;;8.13;2.70;;;;;;;20.60;44.13;101328.13;10363441;28;20128;-79
2022/11/01 10:04:19;;;;;;;7.75;1.98;;;;;;;21.15;42.40;101327.06;10332672;28;20038;-81
2022/11/01 10:09:57;;;;;;;4.63;2.17;;;;;;;20.89;42.12;101327.66;10339275;28;20069;-79
2022/11/01 10:15:05;;;;;;;9.75;2.38;;;;;;;21.30;41.13;101336.97;10364416;28;20045;-80
2022/11/01 10:20:08;;;;;;;6.40;2.08;;;;;;;21.07;42.04;101326.97;10361151;28;20046;-79
2022/11/01 10:25:23;;;;;;;9.48;2.80;;;;;;;21.20;41.16;101335.09;10379018;28;20394;-78
2022/11/01 10:30:23;;;;;;;18.40;4.63;;;;;;;20.61;42.64;101345.88;10362029;28;20359;-79
2022/11/01 10:35:28;;;;;;;12.82;3.03;;;;;;;20.36;43.50;101353.50;10362231;28;20133;-78
2022/11/01 10:40:34;;;;;;;8.00;2.15;;;;;;;21.10;41.16;101363.38;10393795;28;20099;-80
2022/11/01 10:45:35;;;;;;;7.55;2.55;;;;;;;22.04;40.24;101367.88;10361633;28;20378;-79
2022/11/01 10:50:35;;;;;;;16.02;3.83;;;;;;;22.73;39.62;101372.81;10394399;28;20125;-79
2022/11/01 10:55:42;;;;;;;8.35;2.58;;;;;;;22.79;39.11;101382.63;10361997;28;20135;-80
2022/11/01 11:00:42;;;;;;;9.45;3.05;;;;;;;22.61;39.32;101378.97;10359581;28;20034;-80
2022/11/01 11:05:43;;;;;;;10.50;3.42;;;;;;;23.89;37.48;101367.81;10378305;28;20042;-80
2022/11/01 11:10:43;;;;;;;9.30;2.43;;;;;;;23.24;36.56;101374.81;10377417;28;20466;-79
2022/11/01 11:16:01;;;;;;;8.32;2.10;;;;;;;22.38;37.89;101361.03;10376577;28;20041;-78
2022/11/01 11:21:05;;;;;;;5.47;1.95;;;;;;;20.83;41.49;101359.50;10344754;28;20046;-80
2022/11/01 11:26:08;;;;;;;17.55;3.50;;;;;;;19.54;45.37;101369.81;10359659;28;20042;-79
2022/11/01 11:31:12;;;;;;;10.88;2.42;;;;;;;19.58;45.38;101375.19;10375995;28;20045;-79
2022/11/01 11:36:13;;;;;;;10.27;3.85;;;;;;;20.16;44.69;101377.09;10360519;28;20493;-81
2022/11/01 11:41:38;;;;;;;8.40;3.20;;;;;;;19.84;45.10;101366.78;10374707;28;20046;-79
2022/11/01 11:46:38;;;;;;;9.77;1.60;;;;;;;20.76;42.64;101360.25;10344930;28;20386;-78
2022/11/01 11:51:39;;;;;;;8.57;2.10;;;;;;;20.67;42.98;101372.56;10374822;28;20137;-78
2022/11/01 11:56:40;;;;;;;8.53;2.50;;;;;;;20.70;41.84;101363.72;10378766;28;20111;-79
2022/11/01 12:01:40;;;;;;;7.93;3.03;;;;;;;21.45;42.59;101354.88;10391478;28;20053;-79
2022/11/01 12:06:42;;;;;;;10.73;2.17;;;;;;;21.15;41.04;101351.00;10354121;28;20045;-79
2022/11/01 12:11:46;;;;;;;;;;;;;;;21.31;41.88;101370.69;10368158;28;20449;-79
2022/11/01 12:16:46;;;;;;;7.70;3.33;;;;;;;21.66;40.98;101358.69;10359339;28;19983;-79
2022/11/01 12:21:47;;;;;;;8.80;2.85;;;;;;;21.77;41.95;101349.00;10414545;28;20171;-80
2022/11/01 12:26:48;;;;;;;8.80;2.03;;;;;;;21.94;40.25;101346.47;10398485;28;20037;-79
2022/11/01 12:31:49;;;;;;;10.45;2.65;;;;;;;22.05;39.93;101359.00;10362981;28;20508;-80
2022/11/01 12:37:04;;;;;;;5.22;1.88;;;;;;;22.36;39.82;101353.88;10341576;28;20076;-79
2022/11/01 12:42:06;;;;;;;8.40;2.25;;;;;;;22.40;40.77;101348.59;10359811;28;20044;-82
2022/11/01 12:47:24;;;;;;;12.95;2.88;;;;;;;22.80;40.41;101355.06;10341860;28;20034;-82
2022/11/01 12:52:33;;;;;;;8.13;2.40;;;;;;;23.16;37.44;101346.28;10358610;28;20042;-82
2022/11/01 12:57:34;;;;;;;10.27;2.17;;;;;;;22.26;39.62;101343.16;10357020;28;20095;-84
2022/11/01 13:02:52;;;;;;;12.90;2.65;;;;;;;22.57;39.82;101346.03;10357604;28;20124;-84
2022/11/01 13:08:15;;;;;;;7.63;1.90;;;;;;;21.30;41.01;101334.31;10359081;28;20072;-81
2022/11/01 13:13:50;;;;;;;5.30;1.55;;;;;;;21.62;41.28;101327.53;10357453;28;20041;-81
2022/11/01 13:19:04;;;;;;;8.52;1.45;;;;;;;22.22;40.82;101317.34;10344848;28;20042;-83
2022/11/01 13:24:21;;;;;;;12.77;2.28;;;;;;;22.15;39.99;101321.78;10363887;28;20061;-81
2022/11/01 13:29:42;;;;;;;6.13;2.00;;;;;;;21.71;41.67;101320.53;10348326;28;20050;-81
2022/11/01 13:34:49;;;;;;;7.95;2.22;;;;;;;21.58;41.48;101307.06;10363305;28;20514;-82
2022/11/01 13:40:08;;;;;;;6.80;1.95;;;;;;;20.64;43.37;101307.78;10364600;28;20034;-82
2022/11/01 13:45:12;;;;;;;10.13;2.33;;;;;;;20.98;43.65;101311.78;10365135;28;20042;-79
2022/11/01 13:50:33;;;;;;;5.70;1.75;;;;;;;20.78;42.27;101310.66;10363775;28;20490;-82
2022/11/01 13:55:56;;;;;;;10.27;3.07;;;;;;;19.84;44.56;101308.34;10364676;28;20437;-80
2022/11/01 14:00:56;;;;;;;10.90;2.58;;;;;;;18.89;47.31;101313.66;10363048;28;20499;-82
2022/11/01 14:06:05;;;;;;;6.20;2.28;;;;;;;18.68;48.01;101307.06;10365262;28;20066;-78
2022/11/01 14:11:06;;;;;;;6.55;1.88;;;;;;;18.48;49.25;101309.28;10363031;28;20497;-79
2022/11/01 14:16:13;;;;;;;7.05;2.88;;;;;;;18.40;48.97;101319.72;10330738;28;20038;-79
2022/11/01 14:21:27;;;;;;;6.45;1.38;;;;;;;17.93;49.97;101311.50;10363890;28;20052;-80
2022/11/01 14:26:36;;;;;;;7.35;2.13;;;;;;;17.26;51.72;101328.34;10346623;28;20041;-80
2022/11/01 14:31:37;;;;;;;11.35;2.20;;;;;;;16.61;53.82;101332.59;10360631;28;20046;-79
2022/11/01 14:36:39;;;;;;;5.18;1.75;;;;;;;16.27;55.50;101327.19;10343829;28;20156;-79
2022/11/01 14:41:39;;;;;;;3.65;1.58;;;;;;;16.25;56.43;101325.34;10344986;28;20045;-79
2022/11/01 14:46:41;;;;;;;8.32;1.92;;;;;;;15.85;57.49;101324.91;10357739;28;20498;-79
2022/11/01 14:52:14;;;;;;;6.25;1.73;;;;;;;15.32;59.14;101332.75;10342628;28;20549;-79
2022/11/01 14:57:24;;;;;;;7.72;2.70;;;;;;;15.02;60.70;101331.72;10362434;28;20092;-79
2022/11/01 15:02:26;;;;;;;9.68;2.95;;;;;;;14.77;61.48;101343.06;10363447;28;20045;-79
2022/11/01 15:07:29;;;;;;;12.27;3.40;;;;;;;14.54;62.26;101322.88;10360787;28;20117;-79
2022/11/01 15:12:32;;;;;;;10.30;1.88;;;;;;;14.44;62.90;101331.28;10360111;28;20072;-79
2022/11/01 15:17:33;;;;;;;6.32;2.85;;;;;;;14.25;63.65;101324.38;10345213;28;20042;-79
2022/11/01 15:22:33;;;;;;;8.00;1.98;;;;;;;14.22;63.58;101332.13;10327873;28;20064;-78
2022/11/01 15:27:39;;;;;;;18.02;3.05;;;;;;;14.08;64.30;101332.47;10359011;28;20120;-78
2022/11/01 15:32:40;;;;;;;17.10;2.30;;;;;;;13.92;64.74;101333.59;10344325;28;20421;-78
2022/11/01 15:37:40;;;;;;;9.98;2.25;;;;;;;13.76;66.04;101329.41;10360003;28;20038;-78
2022/11/01 15:42:47;;;;;;;10.07;2.40;;;;;;;13.55;66.98;101331.13;10342358;28;20402;-79
2022/11/01 15:47:48;;;;;;;7.13;2.63;;;;;;;13.44;67.69;101328.94;10360504;28;20137;-79
2022/11/01 15:52:48;;;;;;;9.75;2.25;;;;;;;13.34;67.65;101324.09;10341013;28;20046;-79
2022/11/01 15:57:56;;;;;;;13.38;2.22;;;;;;;13.20;68.57;101318.25;10357609;28;20034;-79
2022/11/01 16:03:02;;;;;;;10.07;2.13;;;;;;;12.93;69.31;101322.31;10357896;28;20038;-79
2022/11/01 16:08:06;;;;;;;10.35;2.28;;;;;;;12.96;68.99;101329.44;10358858;28;20034;-79
2022/11/01 16:13:12;;;;;;;10.25;3.40;;;;;;;12.81;69.56;101339.25;10342220;28;20088;-78
2022/11/01 16:18:14;;;;;;;7.70;2.92;;;;;;;12.76;70.05;101341.66;10342203;28;20046;-78
2022/11/01 16:23:33;;;;;;;6.65;2.03;;;;;;;12.55;70.76;101333.69;10357769;28;20506;-78
2022/11/01 16:28:38;;;;;;;7.32;3.35;;;;;;;12.41;71.68;101352.31;10331446;28;20035;-78
2022/11/01 16:33:45;;;;;;;6.40;2.55;;;;;;;12.33;71.55;101354.56;10373121;28;20038;-78
2022/11/01 16:38:46;;;;;;;19.60;3.70;;;;;;;12.27;72.12;101349.00;10340042;28;20144;-80
2022/11/01 16:43:48;;;;;;;16.13;4.25;;;;;;;12.08;73.30;101348.94;10356172;28;20370;-79
2022/11/01 16:48:55;;;;;;;9.43;2.07;;;;;;;11.96;73.94;101370.19;10338890;28;20389;-79
2022/11/01 16:53:57;;;;;;;8.18;2.03;;;;;;;11.81;75.36;101373.84;10371831;28;20111;-79
2022/11/01 16:59:13;;;;;;;8.98;2.38;;;;;;;11.63;76.45;101381.66;10367249;28;20440;-80
2022/11/01 17:04:14;;;;;;;13.85;2.83;;;;;;;11.65;76.34;101389.63;10357551;28;20426;-79
2022/11/01 17:09:16;;;;;;;12.73;2.65;;;;;;;11.81;75.34;101386.03;10346317;28;20037;-78
2022/11/01 17:14:17;;;;;;;11.23;4.30;;;;;;;11.82;74.72;101378.25;10346178;28;20095;-78
2022/11/01 17:19:22;;;;;;;7.97;3.28;;;;;;;11.66;75.66;101381.81;10381110;28;20042;-78
2022/11/01 17:24:23;;;;;;;8.75;2.35;;;;;;;11.69;75.84;101381.97;10378028;28;20057;-78
2022/11/01 17:29:24;;;;;;;4.83;1.83;;;;;;;11.60;76.50;101371.00;10363595;28;20486;-79
2022/11/01 17:34:25;;;;;;;11.75;3.55;;;;;;;11.48;76.40;101363.44;10378219;28;20037;-78
2022/11/01 17:39:26;;;;;;;5.25;2.10;;;;;;;11.30;78.07;101368.59;10365203;28;20060;-77
2022/11/01 17:44:27;;;;;;;13.03;3.13;;;;;;;11.25;78.37;101357.88;10349667;28;20034;-78
2022/11/01 17:49:27;;;;;;;9.43;3.20;;;;;;;11.36;77.48;101371.53;10365591;28;20417;-78
2022/11/01 17:54:28;;;;;;;8.48;2.30;;;;;;;11.41;76.88;101364.81;10371071;28;20056;-77
2022/11/01 17:59:29;;;;;;;18.92;5.28;;;;;;;11.36;76.98;101370.66;10368647;28;20045;-78
2022/11/01 18:04:33;;;;;;;7.65;2.35;;;;;;;11.57;75.51;101370.84;10356977;28;20034;-77
2022/11/01 18:09:34;;;;;;;12.35;2.58;;;;;;;11.50;75.66;101382.75;10346157;28;20041;-78
2022/11/01 18:14:44;;;;;;;12.43;3.30;;;;;;;11.64;74.47;101372.97;10352680;28;20050;-78
2022/11/01 18:19:53;;;;;;;16.30;3.67;;;;;;;11.38;75.83;101372.50;10363151;28;20481;-78
2022/11/01 18:24:59;;;;;;;8.73;2.80;;;;;;;11.22;77.15;101377.75;10356478;28;20161;-77
2022/11/01 18:30:02;;;;;;;10.93;3.15;;;;;;;11.22;77.51;101375.16;10362122;28;20393;-76
2022/11/01 18:35:34;;;;;;;8.55;2.47;;;;;;;11.15;78.42;101368.69;10357668;28;20096;-77
2022/11/01 18:40:43;;;;;;;12.50;3.63;;;;;;;11.25;78.16;101372.69;10372253;28;20486;-80
2022/11/01 18:45:43;;;;;;;10.88;3.60;;;;;;;11.64;76.51;101366.84;10361181;28;20504;-78
2022/11/01 18:50:44;;;;;;;11.38;3.58;;;;;;;11.56;76.76;101355.94;10360064;28;20048;-77
2022/11/01 18:55:48;;;;;;;18.38;4.07;;;;;;;11.57;76.77;101347.25;10359060;28;20498;-78
2022/11/01 19:01:01;;;;;;;8.40;2.72;;;;;;;11.54;77.11;101347.09;10342666;28;20100;-77
2022/11/01 19:06:14;;;;;;;12.73;3.20;;;;;;;11.58;76.69;101360.47;10338848;28;20088;-78
2022/11/01 19:11:14;;;;;;;13.77;2.75;;;;;;;11.56;77.28;101359.47;10359676;28;20065;-77
2022/11/01 19:16:15;;;;;;;9.05;2.55;;;;;;;11.55;76.96;101362.91;10341403;28;20069;-76
2022/11/01 19:21:20;;;;;;;9.15;2.42;;;;;;;11.61;77.06;101346.59;10341807;28;20030;-76
2022/11/01 19:26:30;;;;;;;8.05;3.22;;;;;;;11.82;75.56;101356.38;10358282;28;21427;-77
2022/11/01 19:31:37;;;;;;;11.88;3.03;;;;;;;11.91;74.93;101356.84;10340982;28;20033;-74
2022/11/01 19:36:40;;;;;;;11.80;3.13;;;;;;;11.82;75.33;101356.38;10358234;28;20088;-76
2022/11/01 19:41:43;;;;;;;;;;;;;;;11.61;76.37;101359.69;10341037;28;20544;-76
2022/11/01 19:46:44;;;;;;;13.95;3.13;;;;;;;11.48;77.41;101354.66;10356924;28;20012;-76
2022/11/01 19:51:44;;;;;;;9.38;2.60;;;;;;;11.47;77.16;101343.28;10358697;28;20040;-76
2022/11/01 19:56:45;;;;;;;8.25;2.70;;;;;;;11.58;76.43;101335.94;10358328;28;20046;-76
2022/11/01 20:01:46;;;;;;;9.27;3.45;;;;;;;11.71;76.35;101341.00;10359429;28;20474;-76
2022/11/01 20:06:54;;;;;;;11.65;3.35;;;;;;;12.09;74.72;101327.13;10357390;28;20040;-76
2022/11/01 20:11:55;;;;;;;7.68;2.58;;;;;;;12.30;73.26;101332.53;10358076;28;20113;-76
2022/11/01 20:16:56;;;;;;;9.67;3.80;;;;;;;12.41;72.56;101327.78;10339887;28;20143;-76
2022/11/01 20:21:57;;;;;;;8.52;2.67;;;;;;;12.50;72.23;101325.56;10357040;28;20306;-76
2022/11/01 20:26:59;;;;;;;22.23;3.90;;;;;;;12.51;71.89;101326.50;10339701;28;20050;-77
2022/11/01 20:32:00;;;;;;;7.72;3.53;;;;;;;12.45;72.50;101328.00;10356254;28;20108;-77
2022/11/01 20:37:02;;;;;;;8.73;2.65;;;;;;;12.40;72.88;101321.63;10357724;28;20117;-77
2022/11/01 20:42:02;;;;;;;18.83;4.13;;;;;;;12.24;73.18;101334.84;10356884;28;20069;-77
2022/11/01 20:47:03;;;;;;;15.00;4.38;;;;;;;12.02;74.19;101318.94;10359418;28;20041;-77
2022/11/01 20:52:04;;;;;;;12.10;4.93;;;;;;;11.88;74.98;101319.97;10358798;28;20440;-77
2022/11/01 20:57:04;;;;;;;12.45;4.68;;;;;;;12.09;73.71;101321.88;10358277;28;20073;-77
2022/11/01 21:02:08;;;;;;;9.77;3.03;;;;;;;12.13;73.64;101329.06;10358530;28;20065;-76
2022/11/01 21:07:11;;;;;;;17.75;3.10;;;;;;;12.15;73.85;101325.72;10358009;28;20053;-77
2022/11/01 21:12:39;;;;;;;9.80;3.00;;;;;;;12.33;73.36;101330.03;10358973;28;20500;-76
2022/11/01 21:17:40;;;;;;;9.18;2.85;;;;;;;12.40;72.81;101331.22;10337212;28;20105;-77
2022/11/01 21:22:40;;;;;;;9.50;2.70;;;;;;;12.48;72.12;101332.47;10359177;28;20038;-76
2022/11/01 21:27:42;;;;;;;17.58;3.67;;;;;;;12.61;71.40;101324.34;10354812;28;20041;-77
2022/11/01 21:32:43;;;;;;;12.50;2.70;;;;;;;12.65;71.57;101340.25;10355537;28;20038;-77
2022/11/01 21:37:53;;;;;;;9.35;3.22;;;;;;;12.71;71.49;101327.41;10357614;28;20045;-77
2022/11/01 21:42:54;;;;;;;10.70;4.30;;;;;;;12.77;70.84;101320.72;10362766;28;20037;-77
2022/11/01 21:47:59;;;;;;;10.15;2.58;;;;;;;12.70;71.31;101315.09;10364525;28;20044;-77
2022/11/01 21:52:59;;;;;;;14.15;3.10;;;;;;;12.70;71.75;101312.47;10330690;28;20490;-77
2022/11/01 21:58:00;;;;;;;15.02;3.83;;;;;;;12.77;71.35;101312.84;10365261;28;20034;-77
2022/11/01 22:03:00;;;;;;;14.75;4.30;;;;;;;12.78;71.18;101309.41;10365476;28;21975;-77
2022/11/01 22:08:01;;;;;;;10.60;2.47;;;;;;;12.83;70.51;101300.81;10365001;28;20129;-76
2022/11/01 22:13:01;;;;;;;7.07;2.63;;;;;;;12.89;70.78;101301.97;10365798;28;20072;-77
2022/11/01 22:18:02;;;;;;;11.63;2.83;;;;;;;12.82;71.15;101293.78;10364302;28;20442;-77
2022/11/01 22:23:02;;;;;;;19.35;2.80;;;;;;;12.87;70.85;101289.63;10363761;28;20105;-77
2022/11/01 22:28:05;;;;;;;17.30;4.63;;;;;;;12.78;71.18;101293.63;10363304;28;20443;-77
2022/11/01 22:33:05;;;;;;;;;;;;;;;12.76;71.27;101283.88;10364942;28;20045;-77
2022/11/01 22:38:20;;;;;;;13.35;2.42;;;;;;;12.79;71.28;101260.38;10363823;28;19917;-75
2022/11/01 22:43:21;;;;;;;12.07;3.15;;;;;;;12.78;71.75;101266.47;10345651;28;20096;-76
2022/11/01 22:48:22;;;;;;;11.32;2.72;;;;;;;12.73;72.61;101265.34;10364318;28;20572;-76
2022/11/01 22:53:22;;;;;;;9.73;2.45;;;;;;;12.69;72.49;101261.69;10361535;28;20045;-76
2022/11/01 22:58:34;;;;;;;19.85;2.85;;;;;;;12.59;73.21;101254.25;10344444;28;20076;-76
2022/11/01 23:03:36;;;;;;;10.82;3.17;;;;;;;12.48;73.46;101262.53;10362466;28;20092;-76
2022/11/01 23:08:37;;;;;;;8.23;2.10;;;;;;;12.52;73.21;101244.28;10361678;28;20038;-77
2022/11/01 23:18:59;;;;;;;7.88;2.33;;;;;;;12.68;73.01;101259.00;10360678;28;20039;-76
2022/11/01 23:23:59;;;;;;;;;;;;;;;12.68;73.48;101253.75;10344381;28;20034;-76